LDPL METAR and TAF | Updated Today

LDPL METAR

Pula Airport

Observation time: 2 min. ago

LDPL 052130Z 04008KT CAVOK 02/M08 Q1033

Need help? Read our tutorial on how to read METARs or read the parsed version below.

Pula Airport (LDPL) METAR

  • Weather conditions on Sun, 05 Feb 2023 21:30:00 +0000 (2 min. ago):
  • Present conditions: Dry
  • Clouds: Clear skies
  • Visibility: Greater than 10 km
  • Wind: 40 degrees at 8 knots
  • Temperature: 2 celsius
  • Dew point: -8 celsius
  • Pressure: 1033 millibars
  • Remarks: None


Useful to know...

LDPL TAF

Pula Airport

TAF LDPL 051725Z 0518/0618 06010KT CAVOK TX03/0613Z TNM02/0605Z PROB30 TEMPO 0520/0618 06015G25KT
Observation time: 4:07 hr. ago
Need help? Read our tutorial on how to read TAFs or read the parsed version below.

Parsed version of TAF for Pula Airport (LDPL)

  • From 05 February at 18:00 UTC, to day 06 of the month at 18:00 UTC
  • Visibility: Greater than 10 km
  • Wind: 60 degrees at 10
  • Expected to arise temporarily, from 05 February at 20:00 UTC, to day 06 of the month at 18:00 UTC
    Probability of 30%
  • Wind: 60 degrees at 15